Terminal Aerodrome Forecast
Issued by NWS Chicago, IL

Home | Current Version | Previous Version | Text Only | Print | Product List | Glossary On
Versions: 1 2 3 4 5 6 7 8 9 10 11 12 13 14 15 16 17 18 19 20 21 22 23 24 25 26
621
FTUS43 KLOT 042333
TAFRFD
TAF
KRFD 042333Z 0500/0524 35010G16KT P6SM SCT080
     FM050100 36008KT P6SM FEW080
     FM051900 33008KT P6SM FEW250=

USA.gov is the U.S. government's official web portal to all federal, state and local government web resources and services.